la Seu d'Urgell, Spain
Current Conditions -  °F | °C
As of 10:30 AM on Friday 19 Dec 2014 (Local Time) from LELL Reporting Station
Few Clouds Few Clouds  
Wind Chill: 13°   Ceiling: Unl
Heat Index: 13°   Visibility: 6mi
Dew Point: 10°   Wind: 0mph
Humidity: 82%   Direction: NA
Pressure: 30.36"   Gusts: NA
Location:  42.36°N, 1.46°E
Report Text: LELL 190930Z 00000KT 9999 FEW010 13/10 Q1028
Loading
Personal Weather Stations






























Interactive Weather Map New forecast layout! Learn more

10-Day Weather Forecast

Advertisements
Track Severe Weather on mobile